createdAt,value
2017-08-15T00:00:11.738Z,1010.07
2017-08-15T00:00:59.845Z,1010.09
2017-08-15T00:01:48.785Z,1010.07
2017-08-15T00:02:36.825Z,1010.06
2017-08-15T00:03:24.859Z,1010.02
2017-08-15T00:04:14.026Z,1010.02
2017-08-15T00:05:01.980Z,1010.03
2017-08-15T00:05:50.081Z,1010.03
2017-08-15T00:06:38.751Z,1010.03
2017-08-15T00:07:26.836Z,1010.02
2017-08-15T00:08:14.862Z,1010.02
2017-08-15T00:09:04.248Z,1010.02
2017-08-15T00:09:52.178Z,1010.06
2017-08-15T00:10:40.353Z,1010.03
2017-08-15T00:11:28.112Z,1010.02
2017-08-15T00:12:16.092Z,1010.03
2017-08-15T00:13:10.509Z,1010.06
2017-08-15T00:13:59.353Z,1010.06
2017-08-15T00:14:47.425Z,1010.08
2017-08-15T00:15:41.712Z,1010.08
2017-08-15T00:16:29.197Z,1010.06
2017-08-15T00:17:18.629Z,1010.06
2017-08-15T00:18:06.826Z,1010.09
2017-08-15T00:19:00.660Z,1010.04
2017-08-15T00:19:48.850Z,1010.07
2017-08-15T00:20:36.860Z,1010.09
2017-08-15T00:21:26.043Z,1010.06
2017-08-15T00:22:13.931Z,1010.05
2017-08-15T00:23:01.650Z,1010.11
2017-08-15T00:23:50.670Z,1010.04
2017-08-15T00:24:38.670Z,1010.07
2017-08-15T00:25:28.196Z,1010.09
2017-08-15T00:26:16.252Z,1010.06
2017-08-15T00:27:10.192Z,1010.07
2017-08-15T00:28:05.253Z,1010.06
2017-08-15T00:28:53.318Z,1010.06
2017-08-15T00:29:41.294Z,1010.00
2017-08-15T00:30:30.404Z,1009.99
2017-08-15T00:31:18.060Z,1009.99
2017-08-15T00:32:06.212Z,1009.98
2017-08-15T00:32:55.390Z,1009.95
2017-08-15T00:33:43.232Z,1009.94
2017-08-15T00:34:31.338Z,1009.92
2017-08-15T00:35:20.559Z,1009.92
2017-08-15T00:36:08.697Z,1009.90
2017-08-15T00:36:56.525Z,1009.92
2017-08-15T00:37:44.778Z,1009.93
2017-08-15T00:38:32.854Z,1009.87
2017-08-15T00:39:20.484Z,1009.91
2017-08-15T00:40:09.040Z,1009.88
2017-08-15T00:41:02.657Z,1009.91
2017-08-15T00:41:50.656Z,1009.91
2017-08-15T00:42:38.756Z,1009.90
2017-08-15T00:43:27.778Z,1009.91
2017-08-15T00:44:15.760Z,1009.90
2017-08-15T00:45:04.183Z,1009.90
2017-08-15T00:45:53.047Z,1009.90
2017-08-15T00:46:41.356Z,1009.90
2017-08-15T00:47:29.072Z,1009.90
2017-08-15T00:48:18.090Z,1009.89
2017-08-15T00:49:06.138Z,1009.87
2017-08-15T00:49:54.359Z,1009.89
2017-08-15T00:50:42.604Z,1009.89
2017-08-15T00:51:31.320Z,1009.88
2017-08-15T00:52:19.354Z,1009.90
2017-08-15T00:53:08.690Z,1009.91
2017-08-15T00:53:57.686Z,1009.86
2017-08-15T00:54:46.630Z,1009.85
2017-08-15T00:55:34.914Z,1009.85
2017-08-15T00:56:23.563Z,1009.79
2017-08-15T00:57:11.843Z,1009.81
2017-08-15T00:57:59.979Z,1009.78
2017-08-15T00:58:47.615Z,1009.75
2017-08-15T00:59:36.630Z,1009.76
2017-08-15T01:00:24.747Z,1009.80
2017-08-15T01:01:14.027Z,1009.78
2017-08-15T01:02:07.951Z,1009.76
2017-08-15T01:03:07.830Z,1009.76
2017-08-15T01:04:02.414Z,1009.72
2017-08-15T01:05:02.069Z,1009.76
2017-08-15T01:05:57.057Z,1009.77
2017-08-15T01:06:57.017Z,1009.77
2017-08-15T01:07:51.241Z,1009.78
2017-08-15T01:08:51.069Z,1009.76
2017-08-15T01:09:46.589Z,1009.80
2017-08-15T01:10:41.403Z,1009.78
2017-08-15T01:11:41.164Z,1009.76
2017-08-15T01:12:36.530Z,1009.78
2017-08-15T01:13:36.506Z,1009.77
2017-08-15T01:14:36.302Z,1009.79
2017-08-15T01:15:36.743Z,1009.73
2017-08-15T01:16:30.658Z,1009.81
2017-08-15T01:17:30.895Z,1009.74
2017-08-15T01:18:25.896Z,1009.71
2017-08-15T01:19:20.760Z,1009.71
2017-08-15T01:20:21.918Z,1009.70
2017-08-15T01:21:21.941Z,1009.71
2017-08-15T01:22:16.892Z,1009.72
2017-08-15T01:23:11.952Z,1009.68
2017-08-15T01:24:06.001Z,1009.70
2017-08-15T01:24:54.140Z,1009.70
2017-08-15T01:25:42.153Z,1009.70
2017-08-15T01:26:30.180Z,1009.75
2017-08-15T01:27:18.887Z,1009.75
2017-08-15T01:28:06.963Z,1009.76
2017-08-15T01:28:54.926Z,1009.79
2017-08-15T01:29:44.033Z,1009.80
2017-08-15T01:30:32.399Z,1009.78
2017-08-15T01:31:32.054Z,1009.82
2017-08-15T01:32:32.277Z,1009.81
2017-08-15T01:33:26.250Z,1009.81
2017-08-15T01:34:26.258Z,1009.83
2017-08-15T01:35:21.499Z,1009.73
2017-08-15T01:36:15.299Z,1009.73
2017-08-15T01:37:10.730Z,1009.73
2017-08-15T01:38:04.712Z,1009.72
2017-08-15T01:38:58.436Z,1009.71
2017-08-15T01:39:59.767Z,1009.71
2017-08-15T01:41:00.871Z,1009.69
2017-08-15T01:41:49.742Z,1009.70
2017-08-15T01:42:44.682Z,1009.66
2017-08-15T01:43:34.007Z,1009.71
2017-08-15T01:44:22.589Z,1009.67
2017-08-15T01:45:16.764Z,1009.62
2017-08-15T01:46:05.720Z,1009.65
2017-08-15T01:46:54.030Z,1009.66
2017-08-15T01:47:42.775Z,1009.67
2017-08-15T01:48:37.777Z,1009.60
2017-08-15T01:49:37.860Z,1009.63
2017-08-15T01:50:27.141Z,1009.60
2017-08-15T01:51:15.045Z,1009.60
2017-08-15T01:52:03.090Z,1009.57
2017-08-15T01:52:51.044Z,1009.55
2017-08-15T01:53:39.146Z,1009.54
2017-08-15T01:54:34.400Z,1009.56
2017-08-15T01:55:22.327Z,1009.56
2017-08-15T01:56:10.178Z,1009.53
2017-08-15T01:56:58.225Z,1009.53
2017-08-15T01:57:47.589Z,1009.51
2017-08-15T01:58:41.388Z,1009.49
2017-08-15T01:59:29.817Z,1009.50
2017-08-15T02:00:17.783Z,1009.45
2017-08-15T02:01:05.411Z,1009.47
2017-08-15T02:02:06.934Z,1009.45
2017-08-15T02:03:06.622Z,1009.41
2017-08-15T02:03:54.595Z,1009.45
2017-08-15T02:04:42.667Z,1009.43
2017-08-15T02:05:31.150Z,1009.44
2017-08-15T02:06:19.728Z,1009.44
2017-08-15T02:07:13.788Z,1009.43
2017-08-15T02:08:02.899Z,1009.43
2017-08-15T02:08:50.932Z,1009.43
2017-08-15T02:09:38.929Z,1009.44
2017-08-15T02:10:27.330Z,1009.43
2017-08-15T02:11:15.119Z,1009.41
2017-08-15T02:12:03.053Z,1009.46
2017-08-15T02:12:51.295Z,1009.45
2017-08-15T02:13:39.156Z,1009.43
2017-08-15T02:14:33.388Z,1009.41
2017-08-15T02:15:34.734Z,1009.43
2017-08-15T02:16:23.265Z,1009.44
2017-08-15T02:17:11.432Z,1009.40
2017-08-15T02:18:05.693Z,1009.42
2017-08-15T02:18:54.706Z,1009.44
2017-08-15T02:19:43.462Z,1009.40
2017-08-15T02:20:31.956Z,1009.42
2017-08-15T02:21:20.488Z,1009.42
2017-08-15T02:22:08.886Z,1009.42
2017-08-15T02:22:57.037Z,1009.43
2017-08-15T02:23:44.658Z,1009.42
2017-08-15T02:24:33.055Z,1009.41
2017-08-15T02:25:27.119Z,1009.44
2017-08-15T02:26:14.790Z,1009.43
2017-08-15T02:27:02.990Z,1009.43
2017-08-15T02:27:50.914Z,1009.44
2017-08-15T02:28:38.904Z,1009.44
2017-08-15T02:29:26.952Z,1009.45
2017-08-15T02:30:16.354Z,1009.48
2017-08-15T02:31:04.279Z,1009.42
2017-08-15T02:31:52.138Z,1009.42
2017-08-15T02:32:41.185Z,1009.43
2017-08-15T02:33:29.354Z,1009.46
2017-08-15T02:34:17.277Z,1009.40
2017-08-15T02:35:06.595Z,1009.41
2017-08-15T02:35:54.323Z,1009.44
2017-08-15T02:36:42.648Z,1009.44
2017-08-15T02:37:31.301Z,1009.47
2017-08-15T02:38:19.906Z,1009.44
2017-08-15T02:39:07.540Z,1009.43
2017-08-15T02:39:56.650Z,1009.40
2017-08-15T02:40:45.022Z,1009.43
2017-08-15T02:41:32.709Z,1009.41
2017-08-15T02:42:21.698Z,1009.37
2017-08-15T02:43:09.785Z,1009.40
2017-08-15T02:43:57.858Z,1009.36
2017-08-15T02:44:46.976Z,1009.35
2017-08-15T02:45:35.255Z,1009.33
2017-08-15T02:46:22.979Z,1009.33
2017-08-15T02:47:12.225Z,1009.37
2017-08-15T02:48:00.278Z,1009.37
2017-08-15T02:48:48.014Z,1009.33
2017-08-15T02:49:37.313Z,1009.35
2017-08-15T02:50:25.557Z,1009.38
2017-08-15T02:51:13.463Z,1009.33
2017-08-15T02:52:02.243Z,1009.36
2017-08-15T02:52:50.536Z,1009.36
2017-08-15T02:53:38.581Z,1009.34
2017-08-15T02:54:27.306Z,1009.32
2017-08-15T02:55:15.778Z,1009.33
2017-08-15T02:56:03.419Z,1009.33
2017-08-15T02:56:51.787Z,1009.34
2017-08-15T02:57:40.876Z,1009.31
2017-08-15T02:58:28.572Z,1009.31
2017-08-15T02:59:17.994Z,1009.33
2017-08-15T03:00:06.027Z,1009.35
2017-08-15T03:00:54.078Z,1009.35
2017-08-15T03:01:43.153Z,1009.33
2017-08-15T03:02:31.218Z,1009.37
2017-08-15T03:03:19.227Z,1009.32
2017-08-15T03:04:08.250Z,1009.34
2017-08-15T03:04:56.325Z,1009.31
2017-08-15T03:05:44.278Z,1009.31
2017-08-15T03:06:33.414Z,1009.28
2017-08-15T03:07:21.458Z,1009.31
2017-08-15T03:08:09.431Z,1009.30
2017-08-15T03:08:57.465Z,1009.26
2017-08-15T03:09:46.641Z,1009.28
2017-08-15T03:10:34.684Z,1009.26
2017-08-15T03:11:22.690Z,1009.27
2017-08-15T03:12:11.668Z,1009.28
2017-08-15T03:12:59.749Z,1009.29
2017-08-15T03:13:48.804Z,1009.30
2017-08-15T03:14:36.945Z,1009.32
2017-08-15T03:15:24.920Z,1009.31
2017-08-15T03:16:14.009Z,1009.26
2017-08-15T03:17:01.952Z,1009.30
2017-08-15T03:17:50.029Z,1009.30
2017-08-15T03:18:39.032Z,1009.29
2017-08-15T03:19:27.128Z,1009.28
2017-08-15T03:20:15.127Z,1009.27
2017-08-15T03:21:04.276Z,1009.29
2017-08-15T03:21:52.222Z,1009.31
2017-08-15T03:22:40.357Z,1009.27
2017-08-15T03:23:29.299Z,1009.26
2017-08-15T03:24:17.275Z,1009.26
2017-08-15T03:25:05.430Z,1009.25
2017-08-15T03:25:53.561Z,1009.24
2017-08-15T03:26:42.519Z,1009.20
2017-08-15T03:27:30.608Z,1009.21
2017-08-15T03:28:19.515Z,1009.22
2017-08-15T03:29:07.701Z,1009.25
2017-08-15T03:29:55.817Z,1009.24
2017-08-15T03:30:44.749Z,1009.23
2017-08-15T03:31:32.666Z,1009.25
2017-08-15T03:32:20.763Z,1009.22
2017-08-15T03:33:08.870Z,1009.21
2017-08-15T03:33:58.024Z,1009.26
2017-08-15T03:34:46.048Z,1009.24
2017-08-15T03:35:34.068Z,1009.22
2017-08-15T03:36:23.050Z,1009.25
2017-08-15T03:37:11.067Z,1009.27
2017-08-15T03:38:00.084Z,1009.25
2017-08-15T03:38:48.123Z,1009.25
2017-08-15T03:39:36.183Z,1009.25
2017-08-15T03:40:25.434Z,1009.26
2017-08-15T03:41:13.344Z,1009.25
2017-08-15T03:42:01.290Z,1009.27
2017-08-15T03:42:50.434Z,1009.25
2017-08-15T03:43:38.355Z,1009.30
2017-08-15T03:44:26.471Z,1009.28
2017-08-15T03:45:15.108Z,1009.26
2017-08-15T03:46:03.263Z,1009.28
2017-08-15T03:46:51.493Z,1009.29
2017-08-15T03:47:40.209Z,1009.28
2017-08-15T03:48:28.353Z,1009.26
2017-08-15T03:49:16.458Z,1009.23
2017-08-15T03:50:05.808Z,1009.23
2017-08-15T03:50:53.882Z,1009.23
2017-08-15T03:51:41.876Z,1009.21
2017-08-15T03:52:30.928Z,1009.22
2017-08-15T03:53:18.909Z,1009.20
2017-08-15T03:54:07.102Z,1009.19
2017-08-15T03:54:56.058Z,1009.24
2017-08-15T03:55:44.110Z,1009.26
2017-08-15T03:56:32.152Z,1009.23
2017-08-15T03:57:21.267Z,1009.26
2017-08-15T03:58:09.212Z,1009.26
2017-08-15T03:58:57.308Z,1009.26
2017-08-15T03:59:46.352Z,1009.27
2017-08-15T04:00:34.338Z,1009.27
2017-08-15T04:01:22.411Z,1009.31
2017-08-15T04:02:11.479Z,1009.27
2017-08-15T04:02:59.503Z,1009.25
2017-08-15T04:03:47.535Z,1009.29
2017-08-15T04:04:36.538Z,1009.27
2017-08-15T04:05:24.697Z,1009.29
2017-08-15T04:06:13.757Z,1009.27
2017-08-15T04:07:01.830Z,1009.28
2017-08-15T04:07:49.790Z,1009.27
2017-08-15T04:08:38.832Z,1009.27
2017-08-15T04:09:26.945Z,1009.29
2017-08-15T04:10:14.899Z,1009.25
2017-08-15T04:11:04.035Z,1009.26
2017-08-15T04:11:52.119Z,1009.25
2017-08-15T04:12:41.030Z,1009.28
2017-08-15T04:13:29.105Z,1009.24
2017-08-15T04:14:17.197Z,1009.23
2017-08-15T04:15:06.270Z,1009.19
2017-08-15T04:15:54.223Z,1009.19
2017-08-15T04:16:42.337Z,1009.22
2017-08-15T04:17:30.286Z,1009.15
2017-08-15T04:18:19.368Z,1009.14
2017-08-15T04:19:07.481Z,1009.20
2017-08-15T04:19:56.470Z,1009.16
2017-08-15T04:20:44.468Z,1009.22
2017-08-15T04:21:32.592Z,1009.18
2017-08-15T04:22:21.698Z,1009.18
2017-08-15T04:23:09.746Z,1009.17
2017-08-15T04:23:58.774Z,1009.18
2017-08-15T04:24:46.816Z,1009.16
2017-08-15T04:25:34.871Z,1009.17
2017-08-15T04:26:23.814Z,1009.11
2017-08-15T04:27:11.931Z,1009.12
2017-08-15T04:28:00.075Z,1009.08
2017-08-15T04:28:49.006Z,1009.10
2017-08-15T04:29:37.061Z,1009.12
2017-08-15T04:30:26.010Z,1009.05
2017-08-15T04:31:14.163Z,1009.06
2017-08-15T04:32:02.144Z,1009.07
2017-08-15T04:32:51.257Z,1009.04
2017-08-15T04:33:39.326Z,1009.02
2017-08-15T04:34:27.345Z,1009.04
2017-08-15T04:35:16.308Z,1008.96
2017-08-15T04:36:04.401Z,1008.99
2017-08-15T04:36:53.552Z,1008.99
2017-08-15T04:37:41.507Z,1008.99
2017-08-15T04:38:29.480Z,1009.00
2017-08-15T04:39:18.631Z,1008.99
2017-08-15T04:40:06.749Z,1009.01
2017-08-15T04:40:54.667Z,1008.99
2017-08-15T04:41:42.710Z,1008.97
2017-08-15T04:42:31.758Z,1008.95
2017-08-15T04:43:19.802Z,1008.92
2017-08-15T04:44:08.942Z,1008.92
2017-08-15T04:44:56.859Z,1008.93
2017-08-15T04:45:45.002Z,1008.89
2017-08-15T04:46:32.996Z,1008.86
2017-08-15T04:47:26.630Z,1008.92
2017-08-15T04:48:14.992Z,1008.91
2017-08-15T04:49:08.950Z,1008.87
2017-08-15T04:49:57.149Z,1008.87
2017-08-15T04:50:45.098Z,1008.87
2017-08-15T04:51:33.197Z,1008.84
2017-08-15T04:52:21.202Z,1008.85
2017-08-15T04:53:10.129Z,1008.86
2017-08-15T04:53:58.286Z,1008.87
2017-08-15T04:54:46.521Z,1008.84
2017-08-15T04:55:41.207Z,1008.88
2017-08-15T04:56:35.533Z,1008.86
2017-08-15T04:57:24.368Z,1008.86
2017-08-15T04:58:13.345Z,1008.90
2017-08-15T04:59:01.760Z,1008.86
2017-08-15T04:59:49.699Z,1008.87
2017-08-15T05:00:37.826Z,1008.87
2017-08-15T05:01:26.786Z,1008.90
2017-08-15T05:02:14.848Z,1008.87
2017-08-15T05:03:08.823Z,1008.86
2017-08-15T05:03:56.932Z,1008.85
2017-08-15T05:04:46.088Z,1008.87
2017-08-15T05:05:35.004Z,1008.86
2017-08-15T05:06:29.051Z,1008.86
2017-08-15T05:07:17.988Z,1008.86
2017-08-15T05:08:06.140Z,1008.84
2017-08-15T05:08:54.298Z,1008.82
2017-08-15T05:09:43.261Z,1008.82
2017-08-15T05:10:31.390Z,1008.81
2017-08-15T05:11:20.369Z,1008.83
2017-08-15T05:12:09.416Z,1008.79
2017-08-15T05:13:03.431Z,1008.78
2017-08-15T05:13:52.421Z,1008.85
2017-08-15T05:14:46.461Z,1008.82
2017-08-15T05:15:41.699Z,1008.80
2017-08-15T05:16:41.555Z,1008.78
2017-08-15T05:17:41.619Z,1008.84
2017-08-15T05:18:41.759Z,1008.82
2017-08-15T05:19:47.754Z,1008.81
2017-08-15T05:20:42.806Z,1008.81
2017-08-15T05:21:31.877Z,1008.81
2017-08-15T05:22:25.845Z,1008.81
2017-08-15T05:23:25.787Z,1008.81
2017-08-15T05:24:13.979Z,1008.79
2017-08-15T05:25:07.936Z,1008.82
2017-08-15T05:25:56.041Z,1008.83
2017-08-15T05:26:45.141Z,1008.85
2017-08-15T05:27:33.075Z,1008.86
2017-08-15T05:28:27.098Z,1008.86
2017-08-15T05:29:27.191Z,1008.85
2017-08-15T05:30:22.221Z,1008.80
2017-08-15T05:31:17.369Z,1008.85
2017-08-15T05:32:11.299Z,1008.80
2017-08-15T05:33:11.341Z,1008.80
2017-08-15T05:34:06.458Z,1008.75
2017-08-15T05:34:55.441Z,1008.78
2017-08-15T05:35:49.630Z,1008.78
2017-08-15T05:36:43.604Z,1008.81
2017-08-15T05:37:32.646Z,1008.77
2017-08-15T05:38:27.713Z,1008.79
2017-08-15T05:39:27.643Z,1008.82
2017-08-15T05:40:22.697Z,1008.84
2017-08-15T05:41:17.690Z,1008.81
2017-08-15T05:42:06.790Z,1008.83
2017-08-15T05:43:06.914Z,1008.87
2017-08-15T05:44:06.996Z,1008.85
2017-08-15T05:44:55.882Z,1008.89
2017-08-15T05:45:45.043Z,1008.83
2017-08-15T05:46:45.060Z,1008.87
2017-08-15T05:47:39.174Z,1008.84
2017-08-15T05:48:33.094Z,1008.83
2017-08-15T05:49:33.148Z,1008.87
2017-08-15T05:50:21.308Z,1008.88
2017-08-15T05:51:16.216Z,1008.92
2017-08-15T05:52:16.273Z,1008.93
2017-08-15T05:53:05.340Z,1008.93
2017-08-15T05:53:59.414Z,1008.93
2017-08-15T05:54:59.536Z,1008.93
2017-08-15T05:55:53.476Z,1008.93
2017-08-15T05:56:48.464Z,1008.94
2017-08-15T05:57:43.554Z,1008.95
2017-08-15T05:58:37.656Z,1008.95
2017-08-15T05:59:25.765Z,1008.92
2017-08-15T06:00:14.814Z,1008.94
2017-08-15T06:01:09.820Z,1008.97
2017-08-15T06:01:57.860Z,1008.94
2017-08-15T06:02:51.875Z,1008.96
2017-08-15T06:03:46.001Z,1008.96
2017-08-15T06:04:46.026Z,1008.93
2017-08-15T06:05:35.014Z,1008.94
2017-08-15T06:06:24.138Z,1008.95
2017-08-15T06:07:18.222Z,1008.93
2017-08-15T06:08:06.238Z,1008.96
2017-08-15T06:09:01.235Z,1008.96
2017-08-15T06:09:50.272Z,1008.92
2017-08-15T06:10:44.333Z,1008.92
2017-08-15T06:11:38.495Z,1008.86
2017-08-15T06:12:33.501Z,1008.80
2017-08-15T06:13:27.512Z,1008.86
2017-08-15T06:14:21.599Z,1008.85
2017-08-15T06:15:10.577Z,1008.84
2017-08-15T06:15:59.762Z,1008.84
2017-08-15T06:16:54.705Z,1008.84
2017-08-15T06:17:54.770Z,1008.87
2017-08-15T06:18:49.806Z,1008.87
2017-08-15T06:19:43.959Z,1008.83
2017-08-15T06:20:37.972Z,1008.79
2017-08-15T06:21:31.944Z,1008.84
2017-08-15T06:22:27.086Z,1008.83
2017-08-15T06:23:21.043Z,1008.80
2017-08-15T06:24:10.136Z,1008.75
2017-08-15T06:25:10.256Z,1008.74
2017-08-15T06:26:10.222Z,1008.78
2017-08-15T06:27:04.307Z,1008.72
2017-08-15T06:27:58.283Z,1008.69
2017-08-15T06:28:46.361Z,1008.68
2017-08-15T06:29:40.426Z,1008.61
2017-08-15T06:30:29.525Z,1008.56
2017-08-15T06:31:23.526Z,1008.62
2017-08-15T06:32:17.565Z,1008.58
2017-08-15T06:33:06.641Z,1008.54
2017-08-15T06:33:55.778Z,1008.50
2017-08-15T06:34:49.706Z,1008.50
2017-08-15T06:35:38.910Z,1008.49
2017-08-15T06:36:27.824Z,1008.44
2017-08-15T06:37:22.973Z,1008.39
2017-08-15T06:38:18.013Z,1008.39
2017-08-15T06:39:12.112Z,1008.40
2017-08-15T06:40:01.203Z,1008.38
2017-08-15T06:40:49.304Z,1008.37
2017-08-15T06:41:49.283Z,1008.34
2017-08-15T06:42:43.310Z,1008.37
2017-08-15T06:43:38.439Z,1008.38
2017-08-15T06:44:32.521Z,1008.41
2017-08-15T06:45:32.516Z,1008.41
2017-08-15T06:46:21.591Z,1008.39
2017-08-15T06:47:10.543Z,1008.39
2017-08-15T06:47:59.721Z,1008.39
2017-08-15T06:48:53.764Z,1008.42
2017-08-15T06:49:47.714Z,1008.49
2017-08-15T06:50:42.815Z,1008.53
2017-08-15T06:51:36.914Z,1008.56
2017-08-15T06:52:30.911Z,1008.66
2017-08-15T06:53:20.014Z,1008.70
2017-08-15T06:54:14.077Z,1008.79
2017-08-15T06:55:09.111Z,1008.83
2017-08-15T06:56:04.270Z,1008.91
2017-08-15T06:56:53.208Z,1008.96
2017-08-15T06:57:48.268Z,1009.00
2017-08-15T06:58:42.320Z,1009.10
2017-08-15T06:59:36.371Z,1009.16
2017-08-15T07:00:25.442Z,1009.19
2017-08-15T07:01:20.680Z,1009.17
2017-08-15T07:02:15.685Z,1009.09
2017-08-15T07:03:10.822Z,1009.04
2017-08-15T07:04:10.745Z,1008.97
2017-08-15T07:05:04.895Z,1008.97
2017-08-15T07:05:53.896Z,1008.94
2017-08-15T07:06:48.085Z,1008.96
2017-08-15T07:07:37.057Z,1008.89
2017-08-15T07:08:31.193Z,1008.89
2017-08-15T07:09:25.198Z,1008.86
2017-08-15T07:10:14.407Z,1008.87
2017-08-15T07:11:08.271Z,1008.92
2017-08-15T07:12:02.346Z,1008.83
2017-08-15T07:12:56.473Z,1008.80
2017-08-15T07:13:50.480Z,1008.77
2017-08-15T07:14:51.631Z,1008.84
2017-08-15T07:15:40.642Z,1008.79
2017-08-15T07:16:28.667Z,1008.83
2017-08-15T07:17:34.742Z,1008.81
2017-08-15T07:18:28.937Z,1008.80
2017-08-15T07:19:22.811Z,1008.75
2017-08-15T07:20:10.949Z,1008.79
2017-08-15T07:21:04.924Z,1008.84
2017-08-15T07:21:53.922Z,1008.82
2017-08-15T07:22:49.093Z,1008.83
2017-08-15T07:23:38.078Z,1008.84
2017-08-15T07:24:26.118Z,1008.86
2017-08-15T07:25:20.232Z,1008.88
2017-08-15T07:26:15.355Z,1008.89
2017-08-15T07:27:04.422Z,1008.86
2017-08-15T07:28:04.482Z,1008.92
2017-08-15T07:28:53.503Z,1008.90
2017-08-15T07:29:47.644Z,1008.91
2017-08-15T07:30:42.597Z,1008.85
2017-08-15T07:31:42.620Z,1008.87
2017-08-15T07:32:36.774Z,1008.84
2017-08-15T07:33:37.838Z,1008.86
2017-08-15T07:34:26.960Z,1008.91
2017-08-15T07:35:20.934Z,1008.89
2017-08-15T07:36:09.005Z,1008.90
2017-08-15T07:37:02.568Z,1008.94
2017-08-15T07:37:52.177Z,1008.97
2017-08-15T07:38:46.167Z,1008.92
2017-08-15T07:39:40.228Z,1008.89
2017-08-15T07:40:29.324Z,1008.86
2017-08-15T07:41:18.354Z,1008.89
2017-08-15T07:42:12.355Z,1008.91
2017-08-15T07:43:06.405Z,1008.86
2017-08-15T07:44:01.615Z,1008.84
2017-08-15T07:44:56.618Z,1008.79
2017-08-15T07:45:50.632Z,1008.82
2017-08-15T07:46:44.644Z,1008.82
2017-08-15T07:47:32.744Z,1008.84
2017-08-15T07:48:21.819Z,1008.83
2017-08-15T07:49:10.767Z,1008.86
2017-08-15T07:49:59.950Z,1008.84
2017-08-15T07:50:53.969Z,1008.86
2017-08-15T07:51:49.068Z,1008.84
2017-08-15T07:52:37.159Z,1008.88
2017-08-15T07:53:31.241Z,1008.90
2017-08-15T07:54:20.297Z,1008.89
2017-08-15T07:55:20.344Z,1008.92
2017-08-15T07:56:14.418Z,1008.90
2017-08-15T07:57:03.376Z,1008.90
2017-08-15T07:57:52.468Z,1008.91
2017-08-15T07:58:41.558Z,1008.92
2017-08-15T07:59:35.575Z,1008.88
2017-08-15T08:00:35.635Z,1008.88
2017-08-15T08:01:23.808Z,1008.86
2017-08-15T08:02:17.817Z,1008.79
2017-08-15T08:03:11.884Z,1008.81
2017-08-15T08:03:59.946Z,1008.76
2017-08-15T08:04:55.004Z,1008.76
2017-08-15T08:05:44.098Z,1008.76
2017-08-15T08:06:33.123Z,1008.74
2017-08-15T08:07:27.097Z,1008.66
2017-08-15T08:08:16.140Z,1008.65
2017-08-15T08:09:05.321Z,1008.70
2017-08-15T08:09:59.485Z,1008.63
2017-08-15T08:10:53.388Z,1008.62
2017-08-15T08:11:42.479Z,1008.62
2017-08-15T08:12:31.591Z,1008.66
2017-08-15T08:13:20.747Z,1008.61
2017-08-15T08:14:09.796Z,1008.64
2017-08-15T08:14:58.889Z,1008.63
2017-08-15T08:15:53.096Z,1008.69
2017-08-15T08:16:41.087Z,1008.70
2017-08-15T08:17:35.152Z,1008.68
2017-08-15T08:18:29.126Z,1008.76
2017-08-15T08:19:23.290Z,1008.74
2017-08-15T08:20:23.387Z,1008.80
2017-08-15T08:21:24.446Z,1008.91
2017-08-15T08:22:19.491Z,1008.96
2017-08-15T08:23:13.586Z,1009.01
2017-08-15T08:24:13.604Z,1009.02
2017-08-15T08:25:07.713Z,1009.11
2017-08-15T08:25:55.850Z,1009.12
2017-08-15T08:26:45.041Z,1009.18
2017-08-15T08:27:33.020Z,1009.17
2017-08-15T08:28:22.122Z,1009.21
2017-08-15T08:29:16.192Z,1009.23
2017-08-15T08:30:10.395Z,1009.23
2017-08-15T08:30:59.270Z,1009.27
2017-08-15T08:31:47.403Z,1009.33
2017-08-15T08:32:42.508Z,1009.34
2017-08-15T08:33:31.561Z,1009.34
2017-08-15T08:34:26.697Z,1009.32
2017-08-15T08:35:20.728Z,1009.30
2017-08-15T08:36:14.856Z,1009.27
2017-08-15T08:37:08.914Z,1009.29
2017-08-15T08:37:57.924Z,1009.29
2017-08-15T08:38:52.099Z,1009.33
2017-08-15T08:39:47.233Z,1009.35
2017-08-15T08:40:35.207Z,1009.37
2017-08-15T08:41:29.256Z,1009.40
2017-08-15T08:42:23.456Z,1009.40
2017-08-15T08:43:29.461Z,1009.33
2017-08-15T08:44:30.582Z,1009.36
2017-08-15T08:45:30.651Z,1009.39
2017-08-15T08:46:25.714Z,1009.41
2017-08-15T08:47:20.764Z,1009.40
2017-08-15T08:48:10.002Z,1009.43
2017-08-15T08:49:04.900Z,1009.48
2017-08-15T08:50:00.018Z,1009.59
2017-08-15T08:51:00.082Z,1009.61
2017-08-15T08:52:00.087Z,1009.66
2017-08-15T08:52:55.311Z,1009.70
2017-08-15T08:53:55.359Z,1009.76
2017-08-15T08:54:49.497Z,1009.77
2017-08-15T08:55:43.533Z,1009.81
2017-08-15T08:56:38.595Z,1009.84
2017-08-15T08:57:33.602Z,1009.89
2017-08-15T08:58:33.670Z,1009.94
2017-08-15T08:59:22.749Z,1009.96
2017-08-15T09:00:18.113Z,1010.03
2017-08-15T09:01:12.025Z,1010.05
2017-08-15T09:02:01.041Z,1010.06
2017-08-15T09:02:55.208Z,1010.11
2017-08-15T09:03:43.266Z,1010.10
2017-08-15T09:04:31.408Z,1010.13
2017-08-15T09:05:25.426Z,1010.13
2017-08-15T09:06:19.412Z,1010.13
2017-08-15T09:07:19.488Z,1010.10
2017-08-15T09:08:13.507Z,1010.18
2017-08-15T09:09:07.697Z,1010.15
2017-08-15T09:10:01.689Z,1010.16
2017-08-15T09:11:01.764Z,1010.13
2017-08-15T09:11:55.801Z,1010.10
2017-08-15T09:12:55.938Z,1010.11
2017-08-15T09:13:44.912Z,1010.08
2017-08-15T09:14:34.002Z,1010.06
2017-08-15T09:15:22.103Z,1010.08
2017-08-15T09:16:17.064Z,1010.05
2017-08-15T09:17:06.236Z,1010.08
2017-08-15T09:18:06.254Z,1010.05
2017-08-15T09:18:55.419Z,1010.04
2017-08-15T09:19:50.425Z,1010.06
2017-08-15T09:20:39.521Z,1010.05
2017-08-15T09:21:33.576Z,1010.08
2017-08-15T09:22:33.599Z,1010.04
2017-08-15T09:23:27.657Z,1010.09
2017-08-15T09:24:27.823Z,1010.07
2017-08-15T09:25:21.813Z,1010.07
2017-08-15T09:26:10.872Z,1010.07
2017-08-15T09:27:05.988Z,1010.10
2017-08-15T09:28:01.069Z,1010.11
2017-08-15T09:29:01.214Z,1010.12
2017-08-15T09:30:01.245Z,1010.16
2017-08-15T09:31:02.398Z,1010.17
2017-08-15T09:32:03.376Z,1010.17
2017-08-15T09:32:58.492Z,1010.19
2017-08-15T09:33:53.555Z,1010.18
2017-08-15T09:34:47.579Z,1010.17
2017-08-15T09:35:41.633Z,1010.22
2017-08-15T09:36:35.673Z,1010.17
2017-08-15T09:37:24.798Z,1010.17
2017-08-15T09:38:12.887Z,1010.20
2017-08-15T09:39:06.969Z,1010.17
2017-08-15T09:40:01.091Z,1010.21
2017-08-15T09:40:56.173Z,1010.17
2017-08-15T09:41:45.201Z,1010.15
2017-08-15T09:42:39.378Z,1010.25
2017-08-15T09:43:27.438Z,1010.19
2017-08-15T09:44:21.415Z,1010.23
2017-08-15T09:45:16.582Z,1010.17
2017-08-15T09:46:05.597Z,1010.16
2017-08-15T09:46:54.637Z,1010.15
2017-08-15T09:47:48.810Z,1010.13
2017-08-15T09:48:42.803Z,1010.14
2017-08-15T09:49:42.836Z,1010.15
2017-08-15T09:50:30.918Z,1010.11
2017-08-15T09:51:26.058Z,1010.10
2017-08-15T09:52:20.106Z,1010.10
2017-08-15T09:53:20.294Z,1010.07
2017-08-15T09:54:20.313Z,1010.06
2017-08-15T09:55:09.369Z,1010.05
2017-08-15T09:56:03.409Z,1010.05
2017-08-15T09:56:52.535Z,1010.04
2017-08-15T09:57:40.633Z,1010.01
2017-08-15T09:58:34.689Z,1010.01
2017-08-15T09:59:29.733Z,1009.99
2017-08-15T10:00:18.947Z,1009.99
2017-08-15T10:01:07.848Z,1009.94
2017-08-15T10:02:07.903Z,1009.93
2017-08-15T10:03:08.049Z,1009.92
2017-08-15T10:04:02.166Z,1009.86
2017-08-15T10:04:51.204Z,1009.83
2017-08-15T10:05:45.217Z,1009.78
2017-08-15T10:06:45.295Z,1009.80
2017-08-15T10:07:46.450Z,1009.85
2017-08-15T10:08:41.436Z,1009.83
2017-08-15T10:09:36.622Z,1009.83
2017-08-15T10:10:24.614Z,1009.84
2017-08-15T10:11:19.742Z,1009.82
2017-08-15T10:12:08.818Z,1009.87
2017-08-15T10:13:02.833Z,1009.82
2017-08-15T10:13:51.942Z,1009.83
2017-08-15T10:14:40.043Z,1009.86
2017-08-15T10:15:35.106Z,1009.85
2017-08-15T10:16:35.221Z,1009.91
2017-08-15T10:17:35.319Z,1009.88
2017-08-15T10:18:30.392Z,1009.89
2017-08-15T10:19:18.561Z,1009.90
2017-08-15T10:20:12.454Z,1009.92
2017-08-15T10:21:12.547Z,1009.86
2017-08-15T10:22:06.606Z,1009.86
2017-08-15T10:22:55.762Z,1009.81